createdAt,value
2023-01-05T00:04:07.799Z,65800.81
2023-01-05T00:09:14.990Z,65825.69
2023-01-05T00:14:39.875Z,65804.72
2023-01-05T00:20:02.343Z,65779.63
2023-01-05T00:25:12.294Z,65844.38
2023-01-05T00:30:20.819Z,65865.59
2023-01-05T00:35:26.150Z,65827.72
2023-01-05T00:40:31.260Z,65836.81
2023-01-05T00:45:37.128Z,65819.19
2023-01-05T00:50:41.574Z,65851.78
2023-01-05T00:55:46.003Z,65846.69
2023-01-05T01:00:51.952Z,65808.50
2023-01-05T01:06:00.620Z,65804.72
2023-01-05T01:11:06.644Z,65796.53
2023-01-05T01:16:15.151Z,65843.75
2023-01-05T01:21:19.819Z,65823.97
2023-01-05T01:26:24.292Z,65884.84
2023-01-05T01:31:30.025Z,65906.66
2023-01-05T01:36:35.458Z,65875.28
2023-01-05T01:41:41.316Z,65857.56
2023-01-05T01:46:47.269Z,65887.50
2023-01-05T01:51:51.335Z,65861.31
2023-01-05T01:56:57.645Z,65877.69
2023-01-05T02:02:03.696Z,65879.91
2023-01-05T02:07:11.763Z,65823.97
2023-01-05T02:12:33.864Z,65835.19
2023-01-05T02:17:54.309Z,65842.50
2023-01-05T02:23:25.660Z,65885.69
2023-01-05T02:28:52.244Z,65838.31
2023-01-05T02:34:14.265Z,65877.88
2023-01-05T02:39:21.241Z,65836.19
2023-01-05T02:44:30.687Z,65885.44
2023-01-05T02:49:41.639Z,65882.59
2023-01-05T02:54:52.027Z,65907.66
2023-01-05T02:59:57.665Z,65830.66
2023-01-05T03:05:08.786Z,65913.19
2023-01-05T03:10:32.251Z,65871.47
2023-01-05T03:15:39.772Z,65921.19
2023-01-05T03:20:50.685Z,65943.56
2023-01-05T03:26:14.304Z,65937.88
2023-01-05T03:31:42.271Z,65907.81
2023-01-05T03:36:53.724Z,65859.69
2023-01-05T03:41:59.353Z,65933.50
2023-01-05T03:47:04.655Z,65894.47
2023-01-05T03:52:10.542Z,65976.75
2023-01-05T03:57:19.224Z,65865.50
2023-01-05T04:02:24.616Z,65878.94
2023-01-05T04:07:31.281Z,65853.28
2023-01-05T04:12:36.683Z,65847.94
2023-01-05T04:17:41.699Z,65840.88
2023-01-05T04:22:50.200Z,65816.50
2023-01-05T04:27:57.168Z,65832.44
2023-01-05T04:33:02.465Z,65835.56
2023-01-05T04:38:09.109Z,65836.25
2023-01-05T04:43:13.178Z,65863.97
2023-01-05T04:48:18.025Z,65856.50
2023-01-05T04:53:24.476Z,65891.25
2023-01-05T04:58:30.321Z,65836.19
2023-01-05T05:03:35.853Z,65832.53
2023-01-05T05:08:44.552Z,65834.13
2023-01-05T05:13:49.773Z,65876.63
2023-01-05T05:18:54.280Z,65842.59
2023-01-05T05:24:03.933Z,65857.66
2023-01-05T05:29:11.001Z,65898.63
2023-01-05T05:34:15.488Z,65890.69
2023-01-05T05:39:21.191Z,65861.41
2023-01-05T05:44:25.457Z,65879.47
2023-01-05T05:49:29.729Z,65896.06
2023-01-05T05:54:35.460Z,65846.25
2023-01-05T05:59:39.740Z,65841.53
2023-01-05T06:04:44.361Z,65811.59
2023-01-05T06:09:50.178Z,65861.84
2023-01-05T06:14:54.247Z,65820.16
2023-01-05T06:19:58.596Z,65867.28
2023-01-05T06:25:05.232Z,65835.19
2023-01-05T06:30:10.448Z,65917.53
2023-01-05T06:35:17.331Z,65867.19
2023-01-05T06:40:24.289Z,65832.97
2023-01-05T06:45:31.204Z,65849.53
2023-01-05T06:50:39.166Z,65887.59
2023-01-05T06:55:48.993Z,65881.53
2023-01-05T07:00:58.593Z,65893.28
2023-01-05T07:06:11.385Z,66024.97
2023-01-05T07:11:20.950Z,65946.88
2023-01-05T07:16:25.399Z,65887.50
2023-01-05T07:21:29.786Z,65951.78
2023-01-05T07:26:36.142Z,65888.69
2023-01-05T07:31:40.765Z,65876.81
2023-01-05T07:36:45.376Z,65858.09
2023-01-05T07:41:51.272Z,65861.75
2023-01-05T07:46:55.289Z,65866.72
2023-01-05T07:51:59.977Z,65873.78
2023-01-05T07:57:06.052Z,65885.97
2023-01-05T08:02:10.735Z,65908.88
2023-01-05T08:07:15.890Z,65921.09
2023-01-05T08:12:21.652Z,65904.63
2023-01-05T08:17:27.422Z,65920.22
2023-01-05T08:22:31.890Z,65914.13
2023-01-05T08:27:37.586Z,65903.56
2023-01-05T08:32:42.045Z,65883.84
2023-01-05T08:37:46.465Z,65865.59
2023-01-05T08:42:52.348Z,65865.50
2023-01-05T08:47:56.561Z,65862.28
2023-01-05T08:53:01.010Z,65855.41
2023-01-05T08:58:07.432Z,65855.50
2023-01-05T09:03:11.860Z,65865.50
2023-01-05T09:08:16.200Z,65860.88
2023-01-05T09:13:22.022Z,65886.44
2023-01-05T09:18:26.313Z,65898.28
2023-01-05T09:23:31.270Z,65903.09
2023-01-05T09:28:38.690Z,65902.56
2023-01-05T09:33:43.682Z,65920.84
2023-01-05T09:38:50.548Z,65923.78
2023-01-05T09:44:01.014Z,65919.59
2023-01-05T09:49:08.635Z,65915.94
2023-01-05T09:54:18.425Z,65923.97
2023-01-05T09:59:29.691Z,65925.56
2023-01-05T10:04:35.945Z,65962.38
2023-01-05T10:09:41.629Z,65956.50
2023-01-05T10:14:50.464Z,65962.56
2023-01-05T10:19:55.065Z,65977.38
2023-01-05T10:25:04.659Z,65969.25
2023-01-05T10:30:23.368Z,65982.09
2023-01-05T10:36:00.865Z,65992.72
2023-01-05T10:41:17.999Z,65997.09
2023-01-05T10:46:38.084Z,65996.09
2023-01-05T10:51:52.837Z,66025.53
2023-01-05T10:57:36.621Z,66059.72
2023-01-05T11:02:48.134Z,66078.66
2023-01-05T11:07:55.199Z,66069.91
2023-01-05T11:13:04.662Z,66067.84
2023-01-05T11:18:25.046Z,66095.06
2023-01-05T11:23:36.840Z,66067.75
2023-01-05T11:28:58.508Z,66069.47
2023-01-05T11:34:09.928Z,66094.00
2023-01-05T11:39:22.335Z,66109.09
2023-01-05T11:44:27.341Z,66095.06
2023-01-05T11:49:33.256Z,66088.00
2023-01-05T11:54:43.348Z,66107.38
2023-01-05T11:59:48.319Z,66109.72
2023-01-05T12:05:06.356Z,66059.72
2023-01-05T12:10:41.173Z,66038.84
2023-01-05T12:16:13.855Z,66055.09
2023-01-05T12:21:25.425Z,66070.06
2023-01-05T12:26:35.505Z,66062.41
2023-01-05T12:37:46.000Z,66106.41
2023-01-05T12:43:10.838Z,66091.03
2023-01-05T12:48:19.714Z,66056.59
2023-01-05T12:53:39.114Z,65980.13
2023-01-05T12:58:54.096Z,65946.25
2023-01-05T13:04:04.472Z,65921.63
2023-01-05T13:09:17.178Z,65900.25
2023-01-05T13:14:25.630Z,65846.78
2023-01-05T13:19:36.010Z,65802.84
2023-01-05T13:24:56.355Z,65791.91
2023-01-05T13:30:04.061Z,65777.94
2023-01-05T13:35:25.394Z,65747.47
2023-01-05T13:40:54.592Z,65778.47
2023-01-05T13:46:16.841Z,65783.78
2023-01-05T13:51:48.152Z,65813.72
2023-01-05T13:56:54.426Z,65811.06
2023-01-05T14:02:00.753Z,65804.13
2023-01-05T14:07:12.829Z,65809.03
2023-01-05T14:12:48.705Z,65782.53
2023-01-05T14:17:54.441Z,65787.00
2023-01-05T14:22:58.574Z,65782.72
2023-01-05T14:28:42.376Z,65801.97
2023-01-05T14:33:50.199Z,65848.56
2023-01-05T14:38:54.647Z,65828.16
2023-01-05T14:44:03.846Z,65867.81
2023-01-05T14:49:20.103Z,65823.25
2023-01-05T14:54:37.916Z,65853.28
2023-01-05T14:59:45.938Z,65811.50
2023-01-05T15:04:54.580Z,65817.47
2023-01-05T15:10:34.208Z,65825.50
2023-01-05T15:15:47.924Z,65837.34
2023-01-05T15:21:15.649Z,65848.66
2023-01-05T15:26:41.809Z,65844.28
2023-01-05T15:31:53.440Z,65863.25
2023-01-05T15:37:05.346Z,65852.31
2023-01-05T15:42:11.036Z,65860.34
2023-01-05T15:47:19.109Z,65900.78
2023-01-05T15:52:33.292Z,65879.38
2023-01-05T15:57:38.060Z,65869.97
2023-01-05T16:02:44.970Z,65864.06
2023-01-05T16:07:55.636Z,65826.03
2023-01-05T16:13:04.318Z,65838.22
2023-01-05T16:18:17.376Z,65845.34
2023-01-05T16:23:26.710Z,65855.25
2023-01-05T16:28:31.541Z,65844.72
2023-01-05T16:33:40.401Z,65862.47
2023-01-05T16:38:45.028Z,65838.75
2023-01-05T16:43:55.555Z,65850.09
2023-01-05T16:49:07.656Z,65828.16
2023-01-05T16:54:20.831Z,65822.91
2023-01-05T16:59:50.074Z,65852.13
2023-01-05T17:04:55.933Z,65829.13
2023-01-05T17:10:00.721Z,65819.72
2023-01-05T17:15:08.287Z,65800.72
2023-01-05T17:20:15.040Z,65786.38
2023-01-05T17:25:19.462Z,65749.59
2023-01-05T17:30:24.508Z,65744.91
2023-01-05T17:35:30.841Z,65737.31
2023-01-05T17:40:35.273Z,65724.50
2023-01-05T17:45:42.212Z,65730.91
2023-01-05T17:50:48.205Z,65741.94
2023-01-05T17:55:52.759Z,65755.91
2023-01-05T18:00:57.214Z,65788.50
2023-01-05T18:06:03.601Z,65765.63
2023-01-05T18:11:09.603Z,65783.16
2023-01-05T18:16:14.366Z,65792.13
2023-01-05T18:21:20.111Z,65786.38
2023-01-05T18:26:24.168Z,65778.88
2023-01-05T18:31:28.636Z,65766.69
2023-01-05T18:36:34.654Z,65769.91
2023-01-05T18:41:39.535Z,65804.56
2023-01-05T18:46:44.472Z,65790.84
2023-01-05T18:51:53.545Z,65787.97
2023-01-05T18:56:58.083Z,65799.22
2023-01-05T19:02:02.768Z,65754.41
2023-01-05T19:07:08.549Z,65784.31
2023-01-05T19:12:12.828Z,65801.97
2023-01-05T19:17:17.195Z,65822.63
2023-01-05T19:22:22.960Z,65787.00
2023-01-05T19:27:28.112Z,65794.59
2023-01-05T19:32:36.831Z,65757.72
2023-01-05T19:37:43.586Z,65745.75
2023-01-05T19:42:47.872Z,65749.50
2023-01-05T19:47:52.366Z,65746.94
2023-01-05T19:52:58.107Z,65763.94
2023-01-05T19:58:02.436Z,65775.69
2023-01-05T20:03:06.884Z,65788.09
2023-01-05T20:08:12.922Z,65780.50
2023-01-05T20:13:17.600Z,65783.78
2023-01-05T20:18:22.256Z,65749.16
2023-01-05T20:23:33.105Z,65747.47
2023-01-05T20:28:37.777Z,65760.72
2023-01-05T20:33:42.457Z,65757.19
2023-01-05T20:38:49.085Z,65740.63
2023-01-05T20:44:16.247Z,65758.50
2023-01-05T20:49:26.239Z,65748.97
2023-01-05T20:54:38.072Z,65711.78
2023-01-05T20:59:42.799Z,65711.59
2023-01-05T21:04:56.379Z,65697.81
2023-01-05T21:10:03.196Z,65738.41
2023-01-05T21:15:09.231Z,65695.56
2023-01-05T21:20:13.821Z,65713.19
2023-01-05T21:25:19.922Z,65679.66
2023-01-05T21:30:24.469Z,65681.69
2023-01-05T21:35:29.192Z,65712.75
2023-01-05T21:40:35.934Z,65678.06
2023-01-05T21:45:42.020Z,65669.06
2023-01-05T21:51:04.006Z,65670.13
2023-01-05T21:56:27.875Z,65654.56
2023-01-05T22:01:32.349Z,65636.97
2023-01-05T22:06:36.995Z,65670.47
2023-01-05T22:11:43.121Z,65652.34
2023-01-05T22:16:47.640Z,65676.16
2023-01-05T22:21:52.101Z,65641.75
2023-01-05T22:26:58.128Z,65656.69
2023-01-05T22:32:03.120Z,65648.94
2023-01-05T22:37:08.067Z,65646.66
2023-01-05T22:42:14.000Z,65647.53
2023-01-05T22:47:18.078Z,65653.59
2023-01-05T22:52:22.535Z,65632.06
2023-01-05T22:57:31.574Z,65639.63
2023-01-05T23:02:35.690Z,65634.91
2023-01-05T23:07:40.365Z,65594.38
2023-01-05T23:12:46.367Z,65616.69
2023-01-05T23:17:51.031Z,65604.84
2023-01-05T23:23:13.953Z,65604.84
2023-01-05T23:28:21.197Z,65597.38
2023-01-05T23:33:27.802Z,65600.66
2023-01-05T23:38:32.875Z,65602.28
2023-01-05T23:43:40.852Z,65565.38
2023-01-05T23:48:45.708Z,65516.31
2023-01-05T23:53:51.644Z,65491.38
2023-01-05T23:58:59.700Z,65506.19
